Time;durP1;ratioP1;P1;durP2;ratioP2;P2;SDS_P1;SDS_P2;PMS_P1;PMS_P2;Temp;Humidity;BMP_temperature;BMP_pressure;BME280_temperature;BME280_humidity;BME280_pressure;Samples;Min_cycle;Max_cycle;Signal;HPM_P1;HPM_P2
2022/10/23 00:01:34;;;;;;;9.38;5.57;;;14.30;99.90;;;;;;5096487;28;20303;-66
2022/10/23 00:04:16;;;;;;;11.00;5.25;;;14.30;99.90;;;;;;5097123;28;20024;-66
2022/10/23 00:06:43;;;;;;;10.97;4.63;;;14.30;99.90;;;;;;5097124;28;20031;-66
2022/10/23 00:09:11;;;;;;;9.93;4.80;;;14.30;99.90;;;;;;5097045;28;20028;-66
2022/10/23 00:11:37;;;;;;;8.55;4.40;;;14.30;99.90;;;;;;5079434;28;20115;-66
2022/10/23 00:14:07;;;;;;;12.57;4.97;;;14.30;99.90;;;;;;5096268;28;20024;-66
2022/10/23 00:16:33;;;;;;;8.07;4.05;;;14.30;99.90;;;;;;5096953;28;20055;-67
2022/10/23 00:18:59;;;;;;;9.98;4.55;;;14.30;99.90;;;;;;5096208;28;20032;-66
2022/10/23 00:21:25;;;;;;;8.23;4.40;;;14.30;99.90;;;;;;5096156;28;20040;-66
2022/10/23 00:23:51;;;;;;;10.32;4.63;;;14.30;99.90;;;;;;5096246;28;20035;-66
2022/10/23 00:26:17;;;;;;;11.70;4.20;;;14.40;99.90;;;;;;5079414;28;20055;-65
2022/10/23 00:28:45;;;;;;;7.28;3.97;;;14.40;99.90;;;;;;5097454;28;20034;-65
2022/10/23 00:31:11;;;;;;;11.05;4.50;;;14.40;99.90;;;;;;5099740;28;20031;-65
2022/10/23 00:33:39;;;;;;;8.60;4.60;;;14.40;99.90;;;;;;5100949;28;20033;-64
2022/10/23 00:36:07;;;;;;;9.43;3.80;;;14.40;99.90;;;;;;5100262;28;20040;-64
2022/10/23 00:38:34;;;;;;;9.15;3.95;;;14.40;99.90;;;;;;5100878;28;20063;-64
2022/10/23 00:41:01;;;;;;;10.02;4.40;;;14.40;99.90;;;;;;5100430;28;20028;-64
2022/10/23 00:43:29;;;;;;;10.98;4.55;;;14.50;99.90;;;;;;5100431;28;20032;-65
2022/10/23 00:45:56;;;;;;;9.85;4.22;;;14.50;99.90;;;;;;5083069;28;20066;-65
2022/10/23 00:48:22;;;;;;;9.77;4.30;;;14.40;99.90;;;;;;5100739;28;20265;-64
2022/10/23 00:50:49;;;;;;;10.90;4.32;;;14.40;99.90;;;;;;5099897;28;20044;-66
2022/10/23 00:53:17;;;;;;;10.70;4.00;;;14.40;99.90;;;;;;5100700;28;20040;-65
2022/10/23 00:55:46;;;;;;;10.45;4.45;;;14.40;99.90;;;;;;5099594;28;20031;-65
2022/10/23 00:58:17;;;;;;;9.50;4.60;;;14.50;99.90;;;;;;5100463;28;20027;-65
2022/10/23 01:00:54;;;;;;;8.85;4.43;;;14.50;99.90;;;;;;5099700;28;20260;-64
2022/10/23 01:03:24;;;;;;;7.10;4.15;;;14.50;99.90;;;;;;5100492;28;20391;-65
2022/10/23 01:06:06;;;;;;;10.43;4.15;;;14.50;99.90;;;;;;5099565;28;20040;-67
2022/10/23 01:08:45;;;;;;;8.23;4.30;;;14.50;99.90;;;;;;5082759;28;20028;-65
2022/10/23 01:11:23;;;;;;;11.23;4.50;;;14.50;99.90;;;;;;5082661;28;20115;-64
2022/10/23 01:14:14;;;;;;;8.35;4.28;;;14.50;99.90;;;;;;5099459;28;20028;-65
2022/10/23 01:16:47;;;;;;;8.98;4.43;;;14.60;99.90;;;;;;5099344;28;20024;-64
2022/10/23 01:19:25;;;;;;;8.35;4.28;;;14.50;99.90;;;;;;5099200;28;20119;-64
2022/10/23 01:22:11;;;;;;;9.27;4.00;;;14.50;99.90;;;;;;5100098;28;20039;-64
2022/10/23 01:24:56;;;;;;;7.95;3.90;;;14.50;99.90;;;;;;5099472;28;20031;-64
2022/10/23 01:27:30;;;;;;;7.78;4.05;;;14.50;99.90;;;;;;5099234;28;20299;-65
2022/10/23 01:30:07;;;;;;;8.82;3.88;;;14.50;99.90;;;;;;5099938;28;20024;-65
2022/10/23 01:32:57;;;;;;;10.48;4.95;;;14.50;99.90;;;;;;5099208;28;20016;-65
2022/10/23 01:35:36;;;;;;;10.18;4.43;;;14.50;99.90;;;;;;5082259;28;20082;-65
2022/10/23 01:38:16;;;;;;;8.40;4.05;;;14.60;99.90;;;;;;5082372;28;20035;-65
2022/10/23 01:40:56;;;;;;;11.55;4.25;;;14.60;99.90;;;;;;5099014;28;20402;-65
2022/10/23 01:43:29;;;;;;;9.60;4.38;;;14.60;99.90;;;;;;5098970;28;20035;-65
2022/10/23 01:46:03;;;;;;;8.55;4.35;;;14.60;99.90;;;;;;5098871;28;20032;-65
2022/10/23 01:48:30;;;;;;;7.88;3.75;;;14.50;99.90;;;;;;5099628;28;20372;-65
2022/10/23 01:51:02;;;;;;;9.68;4.10;;;14.50;99.90;;;;;;5099416;28;20295;-65
2022/10/23 01:53:32;;;;;;;12.93;4.40;;;14.60;99.90;;;;;;5098809;28;20055;-65
2022/10/23 01:56:01;;;;;;;8.23;3.85;;;14.60;99.90;;;;;;5081538;28;20429;-65
2022/10/23 01:58:30;;;;;;;8.13;4.30;;;14.60;99.90;;;;;;5099891;28;20038;-65
2022/10/23 02:00:59;;;;;;;9.00;4.38;;;14.50;99.90;;;;;;5098548;28;20024;-65
2022/10/23 02:03:29;;;;;;;8.70;3.65;;;14.60;99.90;;;;;;5098531;28;20038;-65
2022/10/23 02:05:55;;;;;;;8.35;4.50;;;14.60;99.90;;;;;;5082076;28;20294;-65
2022/10/23 02:08:22;;;;;;;6.88;4.22;;;14.60;99.90;;;;;;5098464;28;20042;-65
2022/10/23 02:11:00;;;;;;;6.35;4.35;;;14.70;99.90;;;;;;5081519;28;20039;-65
2022/10/23 02:13:37;;;;;;;7.88;4.75;;;14.70;99.90;;;;;;5099203;28;20043;-65
2022/10/23 02:16:35;;;;;;;6.57;4.20;;;14.70;99.90;;;;;;5098317;28;20024;-65
2022/10/23 02:19:45;;;;;;;8.77;3.72;;;14.70;99.90;;;;;;5090095;28;20040;-65
2022/10/23 02:22:21;;;;;;;12.07;3.95;;;14.60;99.90;;;;;;5057303;28;20043;-65
2022/10/23 02:24:50;;;;;;;10.52;4.00;;;14.60;99.90;;;;;;5040627;28;20076;-65
2022/10/23 02:27:22;;;;;;;10.25;4.07;;;14.60;99.90;;;;;;5087947;28;20055;-65
2022/10/23 02:30:04;;;;;;;10.38;4.03;;;14.60;99.90;;;;;;5098086;28;20020;-65
2022/10/23 02:32:31;;;;;;;7.72;3.40;;;14.60;99.90;;;;;;5097772;28;20020;-65
2022/10/23 02:34:57;;;;;;;7.22;4.25;;;14.50;99.90;;;;;;5081054;28;20020;-65
2022/10/23 02:37:24;;;;;;;9.70;3.83;;;14.50;99.90;;;;;;5081181;28;20024;-66
2022/10/23 02:39:51;;;;;;;8.40;3.42;;;14.50;99.90;;;;;;5098609;28;20152;-65
2022/10/23 02:42:34;;;;;;;6.93;3.33;;;14.60;99.90;;;;;;5081036;28;20036;-64
2022/10/23 02:45:15;;;;;;;12.70;3.72;;;14.50;99.90;;;;;;5080925;28;20032;-65
2022/10/23 02:47:57;;;;;;;7.75;2.97;;;14.50;99.90;;;;;;5098549;28;20040;-64
2022/10/23 02:50:28;;;;;;;8.15;3.28;;;14.60;99.90;;;;;;5098366;28;20395;-65
2022/10/23 02:53:05;;;;;;;8.00;3.80;;;14.50;99.90;;;;;;5080737;28;20028;-65
2022/10/23 02:55:57;;;;;;;7.35;3.67;;;14.50;99.90;;;;;;5098317;28;20032;-64
2022/10/23 02:58:48;;;;;;;10.05;3.30;;;14.60;99.90;;;;;;5098686;28;20185;-65
2022/10/23 03:01:18;;;;;;;6.85;3.25;;;14.60;99.90;;;;;;5097724;28;20173;-65
2022/10/23 03:03:58;;;;;;;5.65;3.25;;;14.50;99.90;;;;;;5097413;28;20029;-64
2022/10/23 03:06:24;;;;;;;8.02;3.30;;;14.60;99.90;;;;;;5097381;28;20076;-64
2022/10/23 03:09:08;;;;;;;7.50;2.92;;;14.60;99.90;;;;;;5097336;28;20118;-64
2022/10/23 03:11:34;;;;;;;7.13;3.30;;;14.60;99.90;;;;;;5098481;28;20043;-64
2022/10/23 03:14:01;;;;;;;6.35;3.20;;;14.50;99.90;;;;;;5097096;28;20054;-64
2022/10/23 03:16:28;;;;;;;9.23;2.80;;;14.60;99.90;;;;;;5080379;28;20060;-64
2022/10/23 03:18:54;;;;;;;8.57;3.30;;;14.60;99.90;;;;;;5080069;28;20393;-64
2022/10/23 03:21:20;;;;;;;6.72;3.05;;;14.60;99.90;;;;;;5063673;28;20074;-64
2022/10/23 03:23:49;;;;;;;4.18;2.95;;;14.50;99.90;;;;;;5097029;28;20024;-64
2022/10/23 03:26:19;;;;;;;8.40;3.13;;;14.50;99.90;;;;;;5096951;28;20427;-65
2022/10/23 03:28:45;;;;;;;5.18;3.17;;;14.50;99.90;;;;;;5098181;28;20104;-65
2022/10/23 03:31:11;;;;;;;5.78;2.80;;;14.60;99.90;;;;;;5097582;28;20442;-64
2022/10/23 03:33:38;;;;;;;5.35;2.75;;;14.50;99.90;;;;;;5097561;28;20415;-64
2022/10/23 03:36:08;;;;;;;7.50;3.20;;;14.50;99.90;;;;;;5096815;28;20028;-65
2022/10/23 03:38:34;;;;;;;7.25;3.28;;;14.40;99.90;;;;;;5079970;28;20040;-64
2022/10/23 03:41:01;;;;;;;5.47;3.35;;;14.40;99.90;;;;;;5063550;28;20114;-64
2022/10/23 03:43:27;;;;;;;8.45;3.28;;;14.40;99.90;;;;;;5079923;28;20089;-64
2022/10/23 03:45:55;;;;;;;7.20;3.28;;;14.40;99.90;;;;;;5096992;28;20036;-64
2022/10/23 03:48:23;;;;;;;7.57;3.40;;;14.30;99.90;;;;;;5096658;28;20063;-65
2022/10/23 03:50:49;;;;;;;6.68;3.00;;;14.30;99.90;;;;;;5079743;28;20036;-65
2022/10/23 03:53:16;;;;;;;8.13;3.20;;;14.30;99.90;;;;;;5096645;28;20047;-65
2022/10/23 03:55:43;;;;;;;8.18;3.17;;;14.20;99.90;;;;;;5097240;28;20036;-65
2022/10/23 03:58:09;;;;;;;5.80;3.17;;;14.20;99.90;;;;;;5079545;28;20039;-65
2022/10/23 04:00:35;;;;;;;8.00;3.60;;;14.20;99.90;;;;;;5097159;28;20047;-65
2022/10/23 04:03:01;;;;;;;5.55;2.83;;;14.20;99.90;;;;;;5096403;28;20028;-67
2022/10/23 04:05:27;;;;;;;5.45;2.85;;;14.30;99.90;;;;;;5095983;28;20337;-65
2022/10/23 04:07:55;;;;;;;5.43;3.10;;;14.20;99.90;;;;;;5096267;28;20032;-65
2022/10/23 04:10:21;;;;;;;6.43;3.30;;;14.20;99.90;;;;;;5079684;28;20044;-65
2022/10/23 04:12:47;;;;;;;5.78;3.22;;;14.10;99.90;;;;;;5096503;28;20043;-65
2022/10/23 04:15:13;;;;;;;5.28;2.97;;;14.20;99.90;;;;;;5096291;28;20280;-65
2022/10/23 04:17:42;;;;;;;6.32;2.72;;;14.10;99.90;;;;;;5079940;28;20402;-65
2022/10/23 04:20:08;;;;;;;4.78;2.72;;;14.10;99.90;;;;;;5097093;28;20113;-64
2022/10/23 04:22:34;;;;;;;9.93;3.08;;;14.00;99.90;;;;;;5097179;28;20037;-65
2022/10/23 04:25:00;;;;;;;7.40;3.17;;;14.00;99.90;;;;;;5096314;28;20311;-64
2022/10/23 04:27:27;;;;;;;5.20;3.17;;;14.00;99.90;;;;;;5063144;28;20039;-65
2022/10/23 04:29:54;;;;;;;9.05;3.17;;;14.10;99.90;;;;;;5079600;28;20311;-64
2022/10/23 04:32:20;;;;;;;9.50;3.03;;;14.20;99.90;;;;;;5079328;28;20032;-65
2022/10/23 04:34:46;;;;;;;10.55;3.33;;;14.20;99.90;;;;;;5079266;28;20115;-65
2022/10/23 04:37:12;;;;;;;6.25;2.95;;;14.20;99.90;;;;;;5096037;28;20112;-65
2022/10/23 04:39:38;;;;;;;6.03;2.70;;;14.10;99.90;;;;;;5095964;28;20105;-65
2022/10/23 04:42:03;;;;;;;4.97;2.83;;;14.10;99.90;;;;;;5096742;28;20039;-65
2022/10/23 04:44:29;;;;;;;9.35;3.50;;;14.10;99.90;;;;;;5096735;28;20032;-65
2022/10/23 04:46:55;;;;;;;5.20;3.25;;;14.20;99.90;;;;;;5096363;28;20047;-65
2022/10/23 04:49:22;;;;;;;6.45;3.50;;;14.20;99.90;;;;;;5095883;28;20074;-65
2022/10/23 04:52:08;;;;;;;9.07;3.28;;;14.20;99.90;;;;;;5095982;28;20104;-65
2022/10/23 04:54:44;;;;;;;6.60;3.10;;;14.20;99.90;;;;;;5097000;28;20047;-65
2022/10/23 04:57:28;;;;;;;7.00;3.30;;;14.20;99.90;;;;;;5095604;28;20411;-65
2022/10/23 05:00:08;;;;;;;5.85;3.67;;;14.10;99.90;;;;;;5080719;28;20044;-65
2022/10/23 05:02:40;;;;;;;11.30;3.53;;;14.10;99.90;;;;;;5080060;28;20027;-64
2022/10/23 05:05:07;;;;;;;6.53;2.90;;;14.00;99.90;;;;;;5095904;28;20415;-65
2022/10/23 05:07:56;;;;;;;8.45;2.83;;;14.00;99.90;;;;;;5093550;28;20044;-65
2022/10/23 05:11:00;;;;;;;7.05;2.97;;;14.00;99.90;;;;;;5083195;28;20081;-65
2022/10/23 05:13:26;;;;;;;6.03;2.97;;;14.00;99.90;;;;;;5092027;28;20055;-65
2022/10/23 05:15:52;;;;;;;6.22;3.15;;;14.10;99.90;;;;;;5112770;28;20351;-65
2022/10/23 05:18:47;;;;;;;7.72;2.95;;;14.10;99.90;;;;;;5099197;28;20300;-65
2022/10/23 05:21:27;;;;;;;6.47;2.70;;;14.20;99.90;;;;;;5069741;28;20042;-65
2022/10/23 05:23:53;;;;;;;12.07;3.78;;;14.10;99.90;;;;;;5099228;28;20027;-65
2022/10/23 05:26:21;;;;;;;4.03;2.53;;;14.20;99.90;;;;;;5100022;28;20024;-64
2022/10/23 05:28:48;;;;;;;8.68;3.10;;;14.10;99.90;;;;;;5082713;28;20479;-64
2022/10/23 05:31:18;;;;;;;6.57;2.67;;;14.10;99.90;;;;;;5099162;28;20089;-64
2022/10/23 05:33:48;;;;;;;10.03;3.10;;;14.10;99.90;;;;;;5099887;28;20111;-67
2022/10/23 05:36:15;;;;;;;5.47;2.67;;;14.10;99.90;;;;;;5099169;28;20576;-65
2022/10/23 05:38:42;;;;;;;8.15;2.97;;;14.00;99.90;;;;;;5082308;28;20028;-66
2022/10/23 05:41:15;;;;;;;7.03;3.28;;;14.10;99.90;;;;;;5083213;28;20399;-66
2022/10/23 05:43:41;;;;;;;7.10;3.10;;;14.20;99.90;;;;;;5082085;28;20036;-65
2022/10/23 05:46:16;;;;;;;7.25;3.20;;;14.10;99.90;;;;;;5099253;28;20043;-66
2022/10/23 05:49:00;;;;;;;3.55;2.65;;;14.20;99.90;;;;;;5085540;28;20036;-66
2022/10/23 05:51:57;;;;;;;8.45;3.30;;;14.20;99.90;;;;;;5087606;28;20043;-64
2022/10/23 05:54:41;;;;;;;4.43;2.92;;;14.20;99.90;;;;;;5084430;28;20039;-65
2022/10/23 05:57:30;;;;;;;5.80;2.97;;;14.20;99.90;;;;;;5091923;28;20052;-65
2022/10/23 05:59:59;;;;;;;8.45;3.60;;;14.10;99.90;;;;;;5098618;28;20415;-63
2022/10/23 06:02:25;;;;;;;5.53;2.97;;;14.10;99.90;;;;;;5098572;28;20115;-64
2022/10/23 06:05:06;;;;;;;5.97;3.40;;;14.20;99.90;;;;;;5083887;28;20028;-65
2022/10/23 06:07:41;;;;;;;5.03;2.63;;;14.20;99.90;;;;;;5083018;28;20446;-66
2022/10/23 06:10:09;;;;;;;5.70;3.05;;;14.10;99.90;;;;;;5098453;28;20119;-66
2022/10/23 06:12:39;;;;;;;7.40;3.30;;;14.20;99.90;;;;;;5082159;28;20039;-65
2022/10/23 06:15:05;;;;;;;6.93;3.28;;;14.30;99.90;;;;;;5098339;28;20028;-65
2022/10/23 06:18:00;;;;;;;5.20;3.20;;;14.30;99.90;;;;;;5084604;28;20062;-65
2022/10/23 06:20:27;;;;;;;6.40;3.23;;;14.20;99.90;;;;;;5081525;28;20016;-68
2022/10/23 06:23:02;;;;;;;7.28;3.35;;;14.20;99.90;;;;;;5082935;28;20692;-66
2022/10/23 06:25:52;;;;;;;6.03;2.92;;;14.20;99.90;;;;;;5098601;28;20051;-67
2022/10/23 06:28:19;;;;;;;7.15;3.28;;;14.20;99.90;;;;;;5114948;27;20051;-66
2022/10/23 06:30:45;;;;;;;5.75;2.90;;;14.10;99.90;;;;;;5097725;28;20036;-65
2022/10/23 06:33:11;;;;;;;7.25;3.20;;;14.10;99.90;;;;;;5080928;28;20039;-65
2022/10/23 06:35:37;;;;;;;5.35;2.90;;;14.10;99.90;;;;;;5098655;28;20056;-66
2022/10/23 06:38:03;;;;;;;5.82;3.40;;;14.20;99.90;;;;;;5097737;28;20106;-65
2022/10/23 06:40:37;;;;;;;6.25;3.08;;;14.20;99.90;;;;;;5081863;28;20280;-65
2022/10/23 06:43:05;;;;;;;4.68;2.67;;;14.30;99.90;;;;;;5080938;28;20110;-65
2022/10/23 06:46:00;;;;;;;7.00;2.85;;;14.30;99.90;;;;;;5097677;28;20047;-67
2022/10/23 06:48:46;;;;;;;4.72;2.90;;;14.20;99.90;;;;;;5080040;28;20105;-65
2022/10/23 06:51:21;;;;;;;9.05;3.33;;;14.30;99.90;;;;;;5081702;28;20148;-65
2022/10/23 06:53:47;;;;;;;6.07;3.13;;;14.30;99.90;;;;;;5097469;28;20032;-65
2022/10/23 06:56:37;;;;;;;5.35;2.90;;;14.40;99.90;;;;;;5094955;28;20383;-65
2022/10/23 06:59:06;;;;;;;6.43;3.40;;;14.40;99.90;;;;;;5059447;28;20056;-65
2022/10/23 07:01:33;;;;;;;4.53;2.95;;;14.60;99.90;;;;;;5075713;28;20036;-65
2022/10/23 07:03:58;;;;;;;6.28;3.00;;;14.70;99.90;;;;;;5092201;28;20016;-64
2022/10/23 07:06:25;;;;;;;5.25;3.20;;;14.70;99.90;;;;;;5092043;28;20316;-65
2022/10/23 07:08:52;;;;;;;5.35;2.80;;;14.70;99.90;;;;;;5091991;28;20232;-65
2022/10/23 07:11:40;;;;;;;5.18;3.17;;;14.60;99.90;;;;;;5083386;28;20297;-65
2022/10/23 07:14:06;;;;;;;3.45;2.65;;;14.70;99.90;;;;;;5098408;28;20028;-65
2022/10/23 07:16:32;;;;;;;4.20;3.00;;;14.70;99.90;;;;;;5097940;28;20032;-65
2022/10/23 07:19:00;;;;;;;6.40;2.97;;;14.80;99.90;;;;;;5096966;28;20040;-67
2022/10/23 07:21:33;;;;;;;6.22;3.05;;;14.90;99.90;;;;;;5097161;28;20273;-66
2022/10/23 07:24:16;;;;;;;4.45;3.15;;;14.90;99.90;;;;;;5096981;28;20024;-66
2022/10/23 07:26:43;;;;;;;5.25;3.20;;;15.00;99.90;;;;;;5097981;28;20135;-65
2022/10/23 07:29:10;;;;;;;5.43;2.60;;;15.00;99.90;;;;;;5080241;28;20040;-66
2022/10/23 07:31:36;;;;;;;7.07;3.13;;;15.10;99.90;;;;;;5080040;28;20035;-65
2022/10/23 07:34:21;;;;;;;3.97;2.83;;;15.20;99.90;;;;;;5097813;28;20047;-66
2022/10/23 07:36:57;;;;;;;7.32;2.70;;;15.20;99.90;;;;;;5096958;28;20116;-66
2022/10/23 07:39:23;;;;;;;4.18;2.35;;;15.30;99.90;;;;;;5079167;28;20028;-66
2022/10/23 07:41:51;;;;;;;6.60;2.88;;;15.30;99.90;;;;;;5064105;28;20093;-66
2022/10/23 07:44:17;;;;;;;6.65;2.78;;;15.40;99.90;;;;;;5079844;28;20031;-65
2022/10/23 07:46:43;;;;;;;8.82;2.65;;;15.50;99.90;;;;;;5097458;28;20038;-66
2022/10/23 07:49:10;;;;;;;7.10;2.97;;;15.50;99.90;;;;;;5097366;28;20088;-65
2022/10/23 07:51:37;;;;;;;4.65;2.60;;;15.50;99.90;;;;;;5096510;28;20036;-66
2022/10/23 07:54:03;;;;;;;3.33;2.40;;;15.60;99.90;;;;;;5079727;28;20415;-66
2022/10/23 07:56:47;;;;;;;4.32;2.45;;;15.50;99.90;;;;;;5096610;28;20124;-66
2022/10/23 07:59:16;;;;;;;8.80;2.88;;;15.50;99.90;;;;;;5079867;28;20039;-66
2022/10/23 08:01:48;;;;;;;6.88;2.67;;;15.60;99.90;;;;;;5079847;28;20101;-66
2022/10/23 08:04:14;;;;;;;4.78;2.40;;;15.60;99.90;;;;;;5063047;28;20304;-66
2022/10/23 08:06:48;;;;;;;6.32;2.65;;;15.60;99.90;;;;;;5080621;28;20028;-63
2022/10/23 08:09:14;;;;;;;6.55;2.40;;;15.60;99.90;;;;;;5096641;28;20028;-64
2022/10/23 08:11:41;;;;;;;3.75;2.45;;;15.60;99.90;;;;;;5096245;28;20046;-67
2022/10/23 08:14:09;;;;;;;4.50;2.50;;;15.60;99.90;;;;;;5062984;28;20119;-65
2022/10/23 08:16:37;;;;;;;3.85;2.63;;;15.70;99.90;;;;;;5096338;28;20032;-66
2022/10/23 08:19:04;;;;;;;7.60;2.60;;;15.80;99.90;;;;;;5096912;28;20039;-67
2022/10/23 08:21:30;;;;;;;4.90;2.60;;;15.90;99.90;;;;;;5096196;28;20077;-65
2022/10/23 08:23:57;;;;;;;5.32;2.53;;;15.90;99.90;;;;;;5079362;28;20047;-67
2022/10/23 08:26:25;;;;;;;3.75;2.20;;;15.90;99.90;;;;;;5096293;28;20397;-64
2022/10/23 08:28:52;;;;;;;3.35;2.25;;;15.90;99.90;;;;;;5079396;28;20028;-66
2022/10/23 08:31:20;;;;;;;5.68;2.28;;;15.90;99.90;;;;;;5096069;28;20291;-64
2022/10/23 08:34:15;;;;;;;3.85;2.30;;;15.90;99.90;;;;;;5096463;28;20299;-66
2022/10/23 08:36:43;;;;;;;3.67;2.13;;;16.00;99.90;;;;;;5079583;28;20284;-65
2022/10/23 08:39:08;;;;;;;4.93;2.25;;;16.10;99.90;;;;;;5062486;28;20109;-65
2022/10/23 08:41:43;;;;;;;5.28;2.38;;;16.10;99.90;;;;;;5096097;28;20036;-65
2022/10/23 08:44:42;;;;;;;4.80;2.13;;;16.20;99.90;;;;;;5096028;28;20407;-65
2022/10/23 08:47:10;;;;;;;3.72;2.42;;;16.30;99.90;;;;;;5096226;28;20141;-65
2022/10/23 08:49:57;;;;;;;3.63;2.03;;;16.30;99.90;;;;;;5096677;28;20051;-65
2022/10/23 08:52:42;;;;;;;5.22;2.30;;;16.30;99.90;;;;;;5099940;28;20081;-65
2022/10/23 08:55:18;;;;;;;5.55;2.72;;;16.40;99.90;;;;;;5100137;28;20028;-66
2022/10/23 08:57:56;;;;;;;5.18;2.80;;;16.50;99.90;;;;;;5100550;28;20071;-65
2022/10/23 09:00:22;;;;;;;2.88;2.25;;;16.60;99.90;;;;;;5100650;28;20032;-65
2022/10/23 09:02:51;;;;;;;4.90;2.15;;;16.60;99.90;;;;;;5099773;28;20410;-65
2022/10/23 09:05:28;;;;;;;4.97;2.53;;;16.80;99.90;;;;;;5066134;28;20291;-65
2022/10/23 09:08:06;;;;;;;5.63;2.47;;;16.80;99.90;;;;;;5100334;28;20056;-65
2022/10/23 09:10:50;;;;;;;5.22;2.33;;;16.90;99.90;;;;;;5082720;28;20314;-65
2022/10/23 09:13:58;;;;;;;7.13;2.60;;;17.10;99.90;;;;;;5100399;28;20307;-65
2022/10/23 09:16:32;;;;;;;3.83;2.30;;;17.10;99.90;;;;;;5100357;28;20036;-66
2022/10/23 09:18:58;;;;;;;5.07;2.28;;;17.10;99.90;;;;;;5082355;28;20028;-65
2022/10/23 09:21:27;;;;;;;4.55;2.08;;;17.00;99.90;;;;;;5116488;28;20316;-65
2022/10/23 09:23:52;;;;;;;4.45;2.40;;;17.10;99.90;;;;;;5100559;28;20325;-66
2022/10/23 09:26:18;;;;;;;4.15;2.33;;;17.20;99.90;;;;;;5082503;28;20028;-65
2022/10/23 09:28:51;;;;;;;3.70;2.00;;;17.40;99.90;;;;;;5099583;28;20101;-65
2022/10/23 09:31:18;;;;;;;4.05;2.20;;;17.40;99.90;;;;;;5099498;28;20035;-65
2022/10/23 09:34:00;;;;;;;4.05;1.90;;;17.50;99.90;;;;;;5099103;28;20115;-66
2022/10/23 09:36:28;;;;;;;3.17;2.05;;;17.60;99.90;;;;;;5082317;28;20043;-66
2022/10/23 09:38:59;;;;;;;5.07;2.30;;;17.50;99.90;;;;;;5099697;28;20028;-65
2022/10/23 09:41:29;;;;;;;5.30;1.92;;;17.60;99.90;;;;;;5082076;28;20039;-65
2022/10/23 09:44:19;;;;;;;4.55;2.00;;;17.50;99.90;;;;;;5099690;28;20355;-64
2022/10/23 09:46:59;;;;;;;5.88;2.30;;;17.60;99.90;;;;;;5082101;28;20035;-66
2022/10/23 09:49:32;;;;;;;5.38;2.13;;;17.50;99.90;;;;;;5098791;28;20080;-66
2022/10/23 09:52:10;;;;;;;3.30;2.00;;;17.70;99.90;;;;;;5099502;28;20107;-66
2022/10/23 09:54:45;;;;;;;4.90;2.28;;;17.80;99.90;;;;;;5098926;28;20032;-66
2022/10/23 09:57:30;;;;;;;5.57;2.15;;;18.00;99.90;;;;;;5098506;28;20067;-66
2022/10/23 10:00:00;;;;;;;4.03;2.20;;;18.10;99.90;;;;;;5098738;28;20044;-66
2022/10/23 10:02:37;;;;;;;6.18;2.25;;;18.30;99.90;;;;;;5098040;28;20061;-65
2022/10/23 10:05:36;;;;;;;5.72;2.15;;;18.40;99.90;;;;;;5085765;28;20042;-65
2022/10/23 10:08:37;;;;;;;3.30;2.22;;;18.40;99.90;;;;;;5098397;28;20028;-66
2022/10/23 10:11:23;;;;;;;5.28;2.20;;;18.10;99.90;;;;;;5089945;28;20063;-66
2022/10/23 10:14:18;;;;;;;4.43;2.05;;;18.40;99.90;;;;;;5098426;28;20036;-66
2022/10/23 10:16:52;;;;;;;4.22;2.13;;;18.30;99.90;;;;;;5099002;28;20385;-65
2022/10/23 10:19:35;;;;;;;5.25;1.90;;;18.40;99.90;;;;;;5098895;28;20311;-66
2022/10/23 10:22:25;;;;;;;4.13;1.70;;;18.50;99.90;;;;;;5098933;28;20348;-66
2022/10/23 10:25:02;;;;;;;4.35;2.10;;;18.50;99.90;;;;;;5081126;28;20020;-66
2022/10/23 10:27:49;;;;;;;5.13;1.92;;;18.50;99.90;;;;;;5098827;28;20426;-65
2022/10/23 10:30:19;;;;;;;6.38;2.10;;;18.70;99.90;;;;;;5098988;28;20028;-66
2022/10/23 10:33:09;;;;;;;3.92;1.90;;;18.60;99.90;;;;;;5081178;28;20035;-67
2022/10/23 10:35:49;;;;;;;3.90;2.10;;;18.70;99.90;;;;;;5097928;28;20024;-66
2022/10/23 10:39:02;;;;;;;3.00;2.00;;;18.70;99.90;;;;;;5098613;28;20043;-65
2022/10/23 10:41:52;;;;;;;6.43;2.17;;;18.60;99.90;;;;;;5097872;28;20342;-65
2022/10/23 10:44:43;;;;;;;4.68;2.22;;;18.90;99.90;;;;;;5097483;28;20125;-66
2022/10/23 10:47:18;;;;;;;8.18;2.30;;;19.10;99.90;;;;;;5097644;28;20028;-66
2022/10/23 10:49:58;;;;;;;3.92;1.88;;;18.70;99.90;;;;;;5080813;28;20028;-65
2022/10/23 10:53:00;;;;;;;5.97;2.33;;;18.80;99.90;;;;;;5093479;28;20040;-65
2022/10/23 10:55:39;;;;;;;5.70;2.05;;;19.30;99.90;;;;;;5080474;28;20028;-66
2022/10/23 10:58:17;;;;;;;4.63;2.10;;;19.30;99.90;;;;;;5097290;28;20122;-65
2022/10/23 11:00:46;;;;;;;4.50;2.15;;;19.00;99.90;;;;;;5098188;28;20370;-65
2022/10/23 11:03:32;;;;;;;4.72;2.10;;;19.20;99.90;;;;;;5080948;28;20052;-65
2022/10/23 11:06:01;;;;;;;3.80;2.10;;;19.30;99.90;;;;;;5080389;28;20418;-64
2022/10/23 11:08:38;;;;;;;4.78;2.00;;;19.40;99.90;;;;;;5097761;28;20025;-64
2022/10/23 11:11:10;;;;;;;3.95;2.10;;;19.50;99.90;;;;;;5098292;28;20417;-64
2022/10/23 11:13:39;;;;;;;5.03;2.20;;;19.40;99.90;;;;;;5097102;28;20387;-64
2022/10/23 11:16:25;;;;;;;3.85;2.00;;;19.20;99.90;;;;;;5097019;28;20317;-64
2022/10/23 11:19:19;;;;;;;5.00;2.15;;;19.40;99.90;;;;;;5097064;28;20036;-65
2022/10/23 11:22:08;;;;;;;4.25;2.15;;;19.40;99.90;;;;;;5097713;28;20035;-64
2022/10/23 11:24:51;;;;;;;3.03;1.90;;;19.40;99.90;;;;;;5080060;28;20487;-64
2022/10/23 11:27:22;;;;;;;3.75;2.08;;;19.40;99.90;;;;;;5096934;28;20024;-65
2022/10/23 11:30:07;;;;;;;4.50;2.20;;;19.50;99.90;;;;;;5097007;28;20032;-65
2022/10/23 11:32:54;;;;;;;5.13;2.25;;;19.60;99.90;;;;;;5097612;28;20020;-64
2022/10/23 11:35:37;;;;;;;5.53;2.40;;;19.70;99.90;;;;;;5096886;28;20032;-65
2022/10/23 11:38:20;;;;;;;3.97;1.92;;;19.20;99.90;;;;;;5097690;28;20267;-64
2022/10/23 11:40:58;;;;;;;5.20;2.20;;;19.00;99.90;;;;;;5079761;28;20075;-64
2022/10/23 11:43:30;;;;;;;7.25;2.10;;;19.30;99.90;;;;;;5097284;28;20093;-64
2022/10/23 11:45:56;;;;;;;5.00;2.30;;;19.40;99.90;;;;;;5096616;28;20023;-65
2022/10/23 11:48:36;;;;;;;5.47;2.30;;;19.30;99.90;;;;;;5079776;28;20127;-65
2022/10/23 11:51:03;;;;;;;6.07;2.20;;;19.10;99.90;;;;;;5097343;28;20068;-63
2022/10/23 11:53:32;;;;;;;6.60;2.40;;;19.00;99.90;;;;;;5096517;28;20422;-65
2022/10/23 11:56:13;;;;;;;5.28;2.03;;;19.20;99.90;;;;;;5096157;28;20036;-65
2022/10/23 11:58:54;;;;;;;4.47;2.30;;;19.10;99.90;;;;;;5096322;28;20052;-64
2022/10/23 12:01:28;;;;;;;6.07;2.13;;;19.10;99.90;;;;;;5097087;28;20096;-65
2022/10/23 12:03:56;;;;;;;3.30;2.08;;;19.50;99.90;;;;;;5097109;28;20381;-67
2022/10/23 12:06:32;;;;;;;5.10;2.15;;;19.80;99.90;;;;;;5096286;28;20023;-66
2022/10/23 12:09:21;;;;;;;6.72;2.00;;;19.80;99.90;;;;;;5096764;28;20055;-66
2022/10/23 12:12:00;;;;;;;3.72;2.05;;;19.50;99.90;;;;;;5097031;28;20043;-66
2022/10/23 12:14:30;;;;;;;2.75;2.10;;;19.60;99.90;;;;;;5096441;28;20035;-64
2022/10/23 12:16:56;;;;;;;4.63;2.35;;;20.00;99.90;;;;;;5096170;28;20032;-66
2022/10/23 12:19:25;;;;;;;3.88;1.77;;;20.00;99.90;;;;;;5097164;28;20081;-66
2022/10/23 12:21:58;;;;;;;7.10;2.08;;;19.90;99.90;;;;;;5096719;28;20065;-66
2022/10/23 12:24:48;;;;;;;2.83;1.70;;;19.80;99.90;;;;;;5096889;28;20276;-65
2022/10/23 12:27:29;;;;;;;6.00;2.10;;;19.90;99.90;;;;;;5099995;28;20373;-66
2022/10/23 12:30:42;;;;;;;3.92;1.80;;;19.90;99.90;;;;;;5100310;28;20399;-65
2022/10/23 12:33:24;;;;;;;6.20;2.22;;;20.00;99.90;;;;;;5092166;28;20116;-66
2022/10/23 12:36:06;;;;;;;12.33;2.10;;;20.10;99.90;;;;;;5101081;28;20061;-68
2022/10/23 12:38:32;;;;;;;7.70;2.00;;;20.40;99.90;;;;;;5100108;28;20036;-65
2022/10/23 12:41:13;;;;;;;4.50;1.80;;;20.60;99.90;;;;;;5100821;28;20409;-66
2022/10/23 12:43:41;;;;;;;3.70;1.88;;;20.60;99.90;;;;;;5100736;28;20291;-66
2022/10/23 12:46:40;;;;;;;6.25;2.03;;;20.50;99.90;;;;;;5100985;28;20020;-67
2022/10/23 12:49:19;;;;;;;5.97;2.03;;;20.70;99.90;;;;;;5092416;28;20036;-67
2022/10/23 12:51:52;;;;;;;5.90;2.22;;;20.80;99.90;;;;;;5099584;28;20103;-66
2022/10/23 12:54:20;;;;;;;5.38;1.70;;;20.60;99.90;;;;;;5082897;28;20043;-67
2022/10/23 12:56:46;;;;;;;5.20;2.28;;;20.70;99.90;;;;;;5082819;28;20062;-66
2022/10/23 12:59:29;;;;;;;4.68;1.60;;;20.70;99.90;;;;;;5100335;28;20031;-67
2022/10/23 13:01:55;;;;;;;3.10;1.85;;;20.90;99.90;;;;;;5099691;28;20028;-67
2022/10/23 13:04:33;;;;;;;3.25;1.70;;;21.10;99.90;;;;;;5082564;28;20035;-67
2022/10/23 13:07:01;;;;;;;4.13;1.85;;;21.10;99.90;;;;;;5100189;28;20028;-66
2022/10/23 13:09:41;;;;;;;2.90;1.77;;;21.10;99.90;;;;;;5082709;28;20470;-66
2022/10/23 13:12:23;;;;;;;5.10;1.90;;;21.20;99.90;;;;;;5100010;28;20055;-66
2022/10/23 13:14:57;;;;;;;5.70;1.88;;;21.10;99.90;;;;;;5100483;28;20097;-67
2022/10/23 13:17:41;;;;;;;6.30;2.25;;;21.10;99.90;;;;;;5100164;28;20395;-68
2022/10/23 13:20:15;;;;;;;4.93;1.77;;;21.10;99.90;;;;;;5099315;28;20310;-67
2022/10/23 13:22:41;;;;;;;3.50;1.95;;;21.20;99.90;;;;;;5099154;28;20016;-66